Zaleski, Ohio
Current Conditions -  °F | °C
As of 7:55 PM on Tuesday 21 Oct 2014 (Local Time) from KUNI Reporting Station
Overcast Overcast  
Wind Chill: 45°   Ceiling: 3700
Heat Index: 48°   Visibility: 10mi
Dew Point: 41°   Wind: 6mph
Humidity: 77%   Direction: 320°NW
Pressure: 30.07"   Gusts: NA
Location:  39.28°N, 82.39°W
Report Text: KUNI 212355Z AUTO 32005KT 10SM OVC037 09/05 A3007 RMK AO2 T00890050 10111 20088
Loading
Personal Weather Stations






























Interactive Weather Map
Tropical Storm Tracking
New forecast layout! Learn more

10-Day Weather Forecast

Advertisements
Track Severe Weather on mobile